createdAt,value
2023-04-29T00:04:51.369Z,12.85
2023-04-29T00:09:51.290Z,12.87
2023-04-29T00:14:51.066Z,12.90
2023-04-29T00:19:51.409Z,12.85
2023-04-29T00:24:50.946Z,12.82
2023-04-29T00:29:51.021Z,12.80
2023-04-29T00:34:50.807Z,12.73
2023-04-29T00:39:50.985Z,12.59
2023-04-29T00:44:50.678Z,12.45
2023-04-29T00:49:50.919Z,12.35
2023-04-29T00:54:50.548Z,12.26
2023-04-29T00:59:50.915Z,12.21
2023-04-29T01:04:50.470Z,12.14
2023-04-29T01:09:50.711Z,12.12
2023-04-29T01:14:50.277Z,12.09
2023-04-29T01:19:50.504Z,12.12
2023-04-29T01:24:50.195Z,12.14
2023-04-29T01:29:50.304Z,12.09
2023-04-29T01:34:50.048Z,11.98
2023-04-29T01:39:50.171Z,11.87
2023-04-29T01:44:49.892Z,11.75
2023-04-29T01:49:49.937Z,11.66
2023-04-29T01:54:49.756Z,11.59
2023-04-29T01:59:49.888Z,11.60
2023-04-29T02:04:49.739Z,11.57
2023-04-29T02:09:49.564Z,11.57
2023-04-29T02:14:49.499Z,11.63
2023-04-29T02:19:49.501Z,11.68
2023-04-29T02:24:49.369Z,11.69
2023-04-29T02:29:49.333Z,11.77
2023-04-29T02:34:49.253Z,11.83
2023-04-29T02:39:49.189Z,11.84
2023-04-29T02:44:49.104Z,11.88
2023-04-29T02:49:49.064Z,11.93
2023-04-29T02:54:48.976Z,11.96
2023-04-29T02:59:48.919Z,11.99
2023-04-29T03:04:48.879Z,12.02
2023-04-29T03:09:48.790Z,12.03
2023-04-29T03:14:48.727Z,12.06
2023-04-29T03:19:48.649Z,12.08
2023-04-29T03:24:48.583Z,12.09
2023-04-29T03:29:48.511Z,12.11
2023-04-29T03:34:48.450Z,12.14
2023-04-29T03:39:48.380Z,12.19
2023-04-29T03:44:48.316Z,12.20
2023-04-29T03:49:48.255Z,12.20
2023-04-29T03:54:48.176Z,12.24
2023-04-29T03:59:48.114Z,12.28
2023-04-29T04:04:48.283Z,12.35
2023-04-29T04:09:47.981Z,12.39
2023-04-29T04:14:47.907Z,12.45
2023-04-29T04:19:47.881Z,12.52
2023-04-29T04:24:47.801Z,12.59
2023-04-29T04:29:47.722Z,12.64
2023-04-29T04:34:47.699Z,12.68
2023-04-29T04:39:47.646Z,12.72
2023-04-29T04:44:47.671Z,12.75
2023-04-29T04:49:47.764Z,12.80
2023-04-29T04:54:47.689Z,12.83
2023-04-29T04:59:47.736Z,12.80
2023-04-29T05:04:47.822Z,12.82
2023-04-29T05:09:47.751Z,12.83
2023-04-29T05:14:47.144Z,12.93
2023-04-29T05:19:47.075Z,12.97
2023-04-29T05:24:47.009Z,13.04
2023-04-29T05:29:46.941Z,13.16
2023-04-29T05:34:46.878Z,13.27
2023-04-29T05:39:46.810Z,13.38
2023-04-29T05:44:46.734Z,13.46
2023-04-29T05:49:46.674Z,13.51
2023-04-29T05:54:46.602Z,13.55
2023-04-29T05:59:46.544Z,13.64
2023-04-29T06:04:46.774Z,13.74
2023-04-29T06:09:46.416Z,13.78
2023-04-29T06:14:46.335Z,13.84
2023-04-29T06:19:46.279Z,13.78
2023-04-29T06:24:46.215Z,13.82
2023-04-29T06:29:46.163Z,13.89
2023-04-29T06:34:46.085Z,13.91
2023-04-29T06:39:46.015Z,13.95
2023-04-29T06:44:45.962Z,13.99
2023-04-29T06:49:45.888Z,13.94
2023-04-29T06:54:45.820Z,13.94
2023-04-29T06:59:45.753Z,13.98
2023-04-29T07:04:45.716Z,14.04
2023-04-29T07:09:45.636Z,14.18
2023-04-29T07:14:45.552Z,14.35
2023-04-29T07:19:45.505Z,14.60
2023-04-29T07:24:45.427Z,14.87
2023-04-29T07:29:45.379Z,15.03
2023-04-29T07:34:45.297Z,15.28
2023-04-29T07:39:45.256Z,15.54
2023-04-29T07:44:45.169Z,15.82
2023-04-29T07:49:45.109Z,16.13
2023-04-29T07:54:45.046Z,16.25
2023-04-29T07:59:44.984Z,16.30
2023-04-29T08:04:45.081Z,16.30
2023-04-29T08:09:44.847Z,16.09
2023-04-29T08:14:44.773Z,15.80
2023-04-29T08:19:44.720Z,15.46
2023-04-29T08:24:44.635Z,15.23
2023-04-29T08:29:44.595Z,15.02
2023-04-29T08:34:44.505Z,15.06
2023-04-29T08:39:44.456Z,15.09
2023-04-29T08:44:44.374Z,15.06
2023-04-29T08:49:44.318Z,15.08
2023-04-29T08:54:44.231Z,15.06
2023-04-29T08:59:44.234Z,14.99
2023-04-29T09:04:44.147Z,14.87
2023-04-29T09:09:44.046Z,14.77
2023-04-29T09:14:43.964Z,14.65
2023-04-29T09:19:43.907Z,14.69
2023-04-29T09:24:43.848Z,14.72
2023-04-29T09:29:43.772Z,14.84
2023-04-29T09:34:43.694Z,14.90
2023-04-29T09:39:43.645Z,14.99
2023-04-29T09:44:43.573Z,14.99
2023-04-29T09:49:43.492Z,14.98
2023-04-29T09:54:43.468Z,15.17
2023-04-29T09:59:43.364Z,15.45
2023-04-29T10:04:43.326Z,15.58
2023-04-29T10:09:43.228Z,15.49
2023-04-29T10:14:43.164Z,15.34
2023-04-29T10:19:43.089Z,15.49
2023-04-29T10:24:43.028Z,15.65
2023-04-29T10:29:42.959Z,15.51
2023-04-29T10:34:42.900Z,15.26
2023-04-29T10:39:42.826Z,15.43
2023-04-29T10:44:42.755Z,15.97
2023-04-29T10:49:42.688Z,16.48
2023-04-29T10:54:44.129Z,16.70
2023-04-29T10:59:42.551Z,16.77
2023-04-29T11:04:42.538Z,16.63
2023-04-29T11:09:42.417Z,16.73
2023-04-29T11:14:42.373Z,17.23
2023-04-29T11:19:42.289Z,18.03
2023-04-29T11:24:42.236Z,18.49
2023-04-29T11:29:42.155Z,18.30
2023-04-29T11:34:42.098Z,18.37
2023-04-29T11:39:42.033Z,17.96
2023-04-29T11:44:41.960Z,17.70
2023-04-29T11:49:41.901Z,17.49
2023-04-29T11:54:41.834Z,17.42
2023-04-29T11:59:41.768Z,17.48
2023-04-29T12:04:41.918Z,17.52
2023-04-29T12:09:41.637Z,17.52
2023-04-29T12:14:41.576Z,17.36
2023-04-29T12:19:41.514Z,17.23
2023-04-29T12:24:41.444Z,17.24
2023-04-29T12:29:41.360Z,17.06
2023-04-29T12:34:41.312Z,16.91
2023-04-29T12:39:41.232Z,16.71
2023-04-29T12:44:41.245Z,16.49
2023-04-29T12:49:41.106Z,16.37
2023-04-29T12:54:41.066Z,16.59
2023-04-29T12:59:41.525Z,16.85
2023-04-29T13:04:42.827Z,16.88
2023-04-29T13:09:40.830Z,16.74
2023-04-29T13:14:40.786Z,16.60
2023-04-29T13:19:51.342Z,16.57
2023-04-29T13:24:41.662Z,16.55
2023-04-29T13:29:40.567Z,16.46
2023-04-29T13:34:41.020Z,16.52
2023-04-29T13:39:40.444Z,16.40
2023-04-29T13:59:46.532Z,15.64
2023-04-29T14:04:41.311Z,15.67
2023-04-29T14:09:40.054Z,15.72
2023-04-29T14:14:39.997Z,15.79
2023-04-29T14:19:39.920Z,15.79
2023-04-29T14:24:39.862Z,15.86
2023-04-29T14:29:39.790Z,15.88
2023-04-29T14:34:39.736Z,15.95
2023-04-29T14:39:39.658Z,16.04
2023-04-29T14:44:39.601Z,16.12
2023-04-29T14:49:39.533Z,16.16
2023-04-29T14:54:39.474Z,16.05
2023-04-29T14:59:39.390Z,15.83
2023-04-29T15:04:39.415Z,15.72
2023-04-29T15:09:39.260Z,15.59
2023-04-29T15:14:39.206Z,15.42
2023-04-29T15:19:39.137Z,15.38
2023-04-29T15:24:39.074Z,15.39
2023-04-29T15:29:38.998Z,15.52
2023-04-29T15:34:38.939Z,15.61
2023-04-29T15:39:38.871Z,15.67
2023-04-29T15:44:38.817Z,15.70
2023-04-29T15:49:38.729Z,15.76
2023-04-29T15:54:38.689Z,15.75
2023-04-29T15:59:38.606Z,15.70
2023-04-29T16:04:38.574Z,15.72
2023-04-29T16:09:38.465Z,15.70
2023-04-29T16:14:38.426Z,15.67
2023-04-29T16:19:38.325Z,15.58
2023-04-29T16:24:38.285Z,15.51
2023-04-29T16:29:38.195Z,15.41
2023-04-29T16:34:38.133Z,15.34
2023-04-29T16:39:38.076Z,15.26
2023-04-29T16:44:38.018Z,15.20
2023-04-29T16:49:37.920Z,15.13
2023-04-29T16:54:37.868Z,15.08
2023-04-29T16:59:37.789Z,15.08
2023-04-29T17:04:37.761Z,15.08
2023-04-29T17:09:37.651Z,15.06
2023-04-29T17:14:39.723Z,14.99
2023-04-29T17:19:37.514Z,14.91
2023-04-29T17:24:37.469Z,14.81
2023-04-29T17:29:37.379Z,14.70
2023-04-29T17:34:37.342Z,14.59
2023-04-29T17:39:37.244Z,14.59
2023-04-29T17:44:37.195Z,14.60
2023-04-29T17:49:37.123Z,14.59
2023-04-29T17:54:37.069Z,14.55
2023-04-29T17:59:36.986Z,14.41
2023-04-29T18:04:36.922Z,14.26
2023-04-29T18:09:36.860Z,14.14
2023-04-29T18:14:36.787Z,14.02
2023-04-29T18:19:36.719Z,13.89
2023-04-29T18:24:36.656Z,13.78
2023-04-29T18:29:36.588Z,13.67
2023-04-29T18:34:36.530Z,13.58
2023-04-29T18:39:36.453Z,13.48
2023-04-29T18:44:36.396Z,13.41
2023-04-29T18:49:38.149Z,13.34
2023-04-29T18:54:36.264Z,13.27
2023-04-29T18:59:36.191Z,13.19
2023-04-29T19:04:36.206Z,13.16
2023-04-29T19:09:36.073Z,13.13
2023-04-29T19:14:36.011Z,13.08
2023-04-29T19:19:35.946Z,13.05
2023-04-29T19:24:35.875Z,13.05
2023-04-29T19:29:35.814Z,13.04
2023-04-29T19:34:35.749Z,13.01
2023-04-29T19:39:35.683Z,13.00
2023-04-29T19:44:35.620Z,12.94
2023-04-29T19:49:35.547Z,12.90
2023-04-29T19:54:35.504Z,12.87
2023-04-29T19:59:35.420Z,12.87
2023-04-29T20:04:35.359Z,12.85
2023-04-29T20:09:35.283Z,12.82
2023-04-29T20:14:35.244Z,12.80
2023-04-29T20:19:35.159Z,12.76
2023-04-29T20:24:35.108Z,12.75
2023-04-29T20:29:35.037Z,12.72
2023-04-29T20:34:34.962Z,12.70
2023-04-29T20:39:34.902Z,12.72
2023-04-29T20:44:34.833Z,12.68
2023-04-29T20:49:34.766Z,12.64
2023-04-29T20:54:34.718Z,12.60
2023-04-29T20:59:34.639Z,12.57
2023-04-29T21:04:34.581Z,12.54
2023-04-29T21:09:34.497Z,12.49
2023-04-29T21:14:34.437Z,12.48
2023-04-29T21:19:34.372Z,12.44
2023-04-29T21:24:34.307Z,12.42
2023-04-29T21:29:34.228Z,12.34
2023-04-29T21:34:34.168Z,12.20
2023-04-29T21:39:34.100Z,12.06
2023-04-29T21:44:34.039Z,11.96
2023-04-29T21:49:33.973Z,11.86
2023-04-29T21:54:33.904Z,11.78
2023-04-29T21:59:33.840Z,11.70
2023-04-29T22:04:33.771Z,11.59
2023-04-29T22:09:33.711Z,11.44
2023-04-29T22:14:33.640Z,11.29
2023-04-29T22:19:33.581Z,11.17
2023-04-29T22:24:33.807Z,11.03
2023-04-29T22:29:33.440Z,10.88
2023-04-29T22:34:33.382Z,10.73
2023-04-29T22:39:33.312Z,10.56
2023-04-29T22:44:33.248Z,10.44
2023-04-29T22:49:33.174Z,10.34
2023-04-29T22:54:33.124Z,10.23
2023-04-29T22:59:33.046Z,10.15
2023-04-29T23:04:33.014Z,10.04
2023-04-29T23:09:32.924Z,9.94
2023-04-29T23:14:32.855Z,9.87
2023-04-29T23:19:32.782Z,9.82
2023-04-29T23:24:32.723Z,9.75
2023-04-29T23:29:32.649Z,9.75
2023-04-29T23:34:32.593Z,9.68
2023-04-29T23:39:32.516Z,9.68
2023-04-29T23:44:32.468Z,9.68
2023-04-29T23:49:32.387Z,9.61
2023-04-29T23:54:32.336Z,9.61
2023-04-29T23:59:32.252Z,9.63
